createdAt,value
2023-02-11T00:01:37.279Z,7.13
2023-02-11T00:04:08.267Z,7.13
2023-02-11T00:06:37.824Z,7.13
2023-02-11T00:09:07.017Z,7.12
2023-02-11T00:11:35.639Z,7.10
2023-02-11T00:14:07.842Z,7.06
2023-02-11T00:16:36.448Z,7.05
2023-02-11T00:19:07.484Z,7.04
2023-02-11T00:21:36.345Z,7.03
2023-02-11T00:24:05.341Z,7.00
2023-02-11T00:26:36.628Z,6.97
2023-02-11T00:29:06.927Z,6.97
2023-02-11T00:31:35.840Z,6.96
2023-02-11T00:34:04.594Z,6.95
2023-02-11T00:36:34.910Z,6.91
2023-02-11T00:39:03.390Z,6.93
2023-02-11T00:41:32.584Z,6.91
2023-02-11T00:44:01.257Z,6.88
2023-02-11T00:46:30.014Z,6.86
2023-02-11T00:48:58.668Z,6.82
2023-02-11T00:51:28.694Z,6.76
2023-02-11T00:53:58.774Z,6.71
2023-02-11T00:56:27.661Z,6.67
2023-02-11T00:58:56.145Z,6.62
2023-02-11T01:01:25.256Z,6.58
2023-02-11T01:03:53.672Z,6.51
2023-02-11T01:06:22.341Z,6.50
2023-02-11T01:08:50.864Z,6.48
2023-02-11T01:11:22.132Z,6.44
2023-02-11T01:13:52.181Z,6.41
2023-02-11T01:16:22.357Z,6.38
2023-02-11T01:18:51.061Z,6.37
2023-02-11T01:21:19.544Z,6.35
2023-02-11T01:23:48.480Z,6.33
2023-02-11T01:26:17.112Z,6.33
2023-02-11T01:28:47.023Z,6.33
2023-02-11T01:31:16.099Z,6.33
2023-02-11T01:33:44.823Z,6.35
2023-02-11T01:36:13.925Z,6.34
2023-02-11T01:38:44.507Z,6.35
2023-02-11T01:41:15.778Z,6.35
2023-02-11T01:43:49.523Z,6.36
2023-02-11T01:46:35.446Z,6.37
2023-02-11T01:49:10.502Z,6.38
2023-02-11T01:51:44.845Z,6.41
2023-02-11T01:54:35.767Z,6.40
2023-02-11T01:57:25.147Z,6.39
2023-02-11T02:00:06.881Z,6.36
2023-02-11T02:02:47.779Z,6.37
2023-02-11T02:05:32.539Z,6.36
2023-02-11T02:08:10.961Z,6.34
2023-02-11T02:10:44.570Z,6.33
2023-02-11T02:13:14.274Z,6.33
2023-02-11T02:15:51.947Z,6.31
2023-02-11T02:18:43.364Z,6.30
2023-02-11T02:21:53.743Z,6.26
2023-02-11T02:24:56.433Z,6.23
2023-02-11T02:27:43.350Z,6.21
2023-02-11T02:31:16.861Z,6.16
2023-02-11T02:33:57.029Z,6.15
2023-02-11T02:36:35.522Z,6.13
2023-02-11T02:39:10.346Z,6.13
2023-02-11T02:41:40.664Z,6.13
2023-02-11T02:44:10.137Z,6.11
2023-02-11T02:46:38.927Z,6.11
2023-02-11T02:49:15.308Z,6.08
2023-02-11T02:52:32.961Z,6.04
2023-02-11T02:55:43.840Z,6.00
2023-02-11T02:59:11.798Z,5.96
2023-02-11T03:01:51.498Z,5.94
2023-02-11T03:04:30.405Z,5.94
2023-02-11T03:07:08.946Z,5.94
2023-02-11T03:09:45.167Z,5.95
2023-02-11T03:12:15.297Z,5.98
2023-02-11T03:14:44.616Z,5.96
2023-02-11T03:17:15.535Z,6.02
2023-02-11T03:19:48.404Z,6.06
2023-02-11T03:22:23.247Z,6.11
2023-02-11T03:24:52.064Z,6.16
2023-02-11T03:27:28.017Z,6.21
2023-02-11T03:30:06.827Z,6.23
2023-02-11T03:32:41.314Z,6.26
2023-02-11T03:35:17.801Z,6.28
2023-02-11T03:37:53.410Z,6.32
2023-02-11T03:40:25.941Z,6.31
2023-02-11T03:43:00.828Z,6.38
2023-02-11T03:45:29.880Z,6.43
2023-02-11T03:48:04.184Z,6.47
2023-02-11T03:50:37.422Z,6.50
2023-02-11T03:53:07.088Z,6.53
2023-02-11T03:55:41.161Z,6.56
2023-02-11T03:58:10.529Z,6.59
2023-02-11T04:00:42.590Z,6.62
2023-02-11T04:03:12.338Z,6.66
2023-02-11T04:05:42.390Z,6.68
2023-02-11T04:08:10.974Z,6.72
2023-02-11T04:10:39.430Z,6.74
2023-02-11T04:13:07.868Z,6.76
2023-02-11T04:15:36.377Z,6.77
2023-02-11T04:18:05.298Z,6.79
2023-02-11T04:20:33.737Z,6.77
2023-02-11T04:23:03.606Z,6.82
2023-02-11T04:25:32.205Z,6.82
2023-02-11T04:28:00.694Z,6.83
2023-02-11T04:30:29.318Z,6.84
2023-02-11T04:32:59.020Z,6.85
2023-02-11T04:35:27.586Z,6.86
2023-02-11T04:37:55.998Z,6.88
2023-02-11T04:40:25.865Z,6.88
2023-02-11T04:42:54.414Z,6.90
2023-02-11T04:45:22.990Z,6.91
2023-02-11T04:47:51.478Z,6.94
2023-02-11T04:50:20.157Z,6.96
2023-02-11T04:52:48.584Z,7.00
2023-02-11T04:55:18.111Z,7.06
2023-02-11T04:57:48.019Z,7.11
2023-02-11T05:00:18.032Z,7.18
2023-02-11T05:02:46.557Z,7.25
2023-02-11T05:05:15.025Z,7.32
2023-02-11T05:07:43.451Z,7.38
2023-02-11T05:10:12.059Z,7.45
2023-02-11T05:12:40.525Z,7.51
2023-02-11T05:15:11.095Z,7.58
2023-02-11T05:17:39.493Z,7.64
2023-02-11T05:20:09.372Z,7.70
2023-02-11T05:22:37.773Z,7.76
2023-02-11T05:25:07.361Z,7.81
2023-02-11T05:27:35.823Z,7.87
2023-02-11T05:30:04.322Z,7.90
2023-02-11T05:32:34.158Z,7.91
2023-02-11T05:35:02.711Z,7.92
2023-02-11T05:37:31.182Z,7.92
2023-02-11T05:39:59.682Z,7.93
2023-02-11T05:42:28.233Z,7.92
2023-02-11T05:44:56.650Z,7.90
2023-02-11T05:47:25.102Z,7.90
2023-02-11T05:49:55.306Z,7.89
2023-02-11T05:52:24.531Z,7.87
2023-02-11T05:54:53.043Z,7.86
2023-02-11T05:57:21.638Z,7.84
2023-02-11T05:59:50.055Z,7.83
2023-02-11T06:02:18.494Z,7.81
2023-02-11T06:04:47.193Z,7.78
2023-02-11T06:07:17.515Z,7.78
2023-02-11T06:09:46.228Z,7.77
2023-02-11T06:12:14.831Z,7.75
2023-02-11T06:14:43.508Z,7.74
2023-02-11T06:17:13.973Z,7.74
2023-02-11T06:19:43.768Z,7.74
2023-02-11T06:22:12.305Z,7.74
2023-02-11T06:25:00.455Z,7.73
2023-02-11T06:27:30.114Z,7.74
2023-02-11T06:29:58.603Z,7.72
2023-02-11T06:32:43.981Z,7.73
2023-02-11T06:35:14.585Z,7.73
2023-02-11T06:37:43.932Z,7.74
2023-02-11T06:40:14.535Z,7.77
2023-02-11T06:42:43.047Z,7.78
2023-02-11T06:45:13.353Z,7.82
2023-02-11T06:47:42.996Z,7.84
2023-02-11T06:50:15.666Z,7.85
2023-02-11T06:52:44.074Z,7.91
2023-02-11T06:55:13.962Z,7.97
2023-02-11T06:57:42.574Z,8.03
2023-02-11T07:00:13.019Z,8.10
2023-02-11T07:02:41.480Z,8.20
2023-02-11T07:05:11.102Z,8.29
2023-02-11T07:07:39.675Z,8.39
2023-02-11T07:10:09.454Z,8.47
2023-02-11T07:12:39.325Z,8.55
2023-02-11T07:15:09.056Z,8.63
2023-02-11T07:17:37.802Z,8.74
2023-02-11T07:20:07.517Z,8.84
2023-02-11T07:22:35.963Z,8.97
2023-02-11T07:25:04.636Z,9.12
2023-02-11T07:27:33.196Z,9.25
2023-02-11T07:30:04.929Z,9.40
2023-02-11T07:32:35.341Z,9.56
2023-02-11T07:35:04.051Z,9.68
2023-02-11T07:37:34.262Z,9.79
2023-02-11T07:40:02.800Z,9.89
2023-02-11T07:42:31.231Z,10.00
2023-02-11T07:44:59.628Z,10.09
2023-02-11T07:47:29.426Z,10.20
2023-02-11T07:49:57.925Z,10.28
2023-02-11T07:52:26.322Z,10.37
2023-02-11T07:54:54.730Z,10.44
2023-02-11T07:57:23.113Z,10.50
2023-02-11T07:59:51.548Z,10.55
2023-02-11T08:02:20.047Z,10.61
2023-02-11T08:04:50.825Z,10.67
2023-02-11T08:07:20.250Z,10.71
2023-02-11T08:09:48.779Z,10.76
2023-02-11T08:12:17.199Z,10.79
2023-02-11T08:14:45.599Z,10.81
2023-02-11T08:17:14.014Z,10.85
2023-02-11T08:19:42.437Z,10.87
2023-02-11T08:22:12.598Z,10.90
2023-02-11T08:24:41.007Z,10.95
2023-02-11T08:27:09.404Z,10.97
2023-02-11T08:29:37.816Z,10.98
2023-02-11T08:32:06.328Z,11.01
2023-02-11T08:34:34.761Z,11.01
2023-02-11T08:37:03.159Z,11.00
2023-02-11T08:39:32.909Z,10.97
2023-02-11T08:42:01.265Z,10.92
2023-02-11T08:44:30.052Z,10.91
2023-02-11T08:46:58.464Z,10.87
2023-02-11T08:49:26.891Z,10.84
2023-02-11T08:51:56.278Z,10.87
2023-02-11T08:54:24.697Z,10.92
2023-02-11T08:56:54.629Z,11.03
2023-02-11T08:59:23.356Z,11.12
2023-02-11T09:01:52.085Z,11.18
2023-02-11T09:04:21.142Z,11.22
2023-02-11T09:06:49.564Z,11.30
2023-02-11T09:09:18.743Z,11.40
2023-02-11T09:11:48.213Z,11.52
2023-02-11T09:14:22.990Z,11.67
2023-02-11T09:16:53.248Z,11.79
2023-02-11T09:19:23.093Z,11.91
2023-02-11T09:21:51.686Z,12.03
2023-02-11T09:24:20.247Z,12.16
2023-02-11T09:26:49.599Z,12.32
2023-02-11T09:29:19.390Z,12.53
2023-02-11T09:31:47.997Z,12.72
2023-02-11T09:34:16.579Z,12.81
2023-02-11T09:36:45.038Z,12.86
2023-02-11T09:39:17.046Z,12.90
2023-02-11T09:42:38.075Z,12.91
2023-02-11T09:45:18.526Z,12.90
2023-02-11T09:47:59.827Z,12.87
2023-02-11T09:50:33.893Z,12.84
2023-02-11T09:53:05.851Z,12.78
2023-02-11T09:55:39.493Z,12.74
2023-02-11T09:58:15.048Z,12.71
2023-02-11T10:00:52.679Z,12.69
2023-02-11T10:03:50.959Z,12.69
2023-02-11T10:06:43.302Z,12.76
2023-02-11T10:09:48.852Z,12.81
2023-02-11T10:12:35.095Z,12.85
2023-02-11T10:15:19.163Z,12.92
2023-02-11T10:18:02.847Z,13.07
2023-02-11T10:20:37.807Z,13.22
2023-02-11T10:23:16.760Z,13.35
2023-02-11T10:25:47.968Z,13.47
2023-02-11T10:28:19.032Z,13.59
2023-02-11T10:30:57.505Z,13.70
2023-02-11T10:33:32.695Z,13.80
2023-02-11T10:36:01.546Z,13.96
2023-02-11T10:38:30.137Z,14.12
2023-02-11T10:40:58.535Z,14.25
2023-02-11T10:43:31.950Z,14.34
2023-02-11T10:46:03.643Z,14.38
2023-02-11T10:48:44.177Z,14.40
2023-02-11T10:51:22.486Z,14.38
2023-02-11T10:54:13.898Z,14.36
2023-02-11T10:56:50.044Z,14.40
2023-02-11T10:59:28.431Z,14.44
2023-02-11T11:02:01.334Z,14.51
2023-02-11T11:04:46.079Z,14.60
2023-02-11T11:07:20.584Z,14.71
2023-02-11T11:09:56.765Z,14.85
2023-02-11T11:12:35.186Z,14.97
2023-02-11T11:15:18.824Z,15.05
2023-02-11T11:17:47.666Z,15.12
2023-02-11T11:20:32.379Z,15.19
2023-02-11T11:23:17.342Z,15.26
2023-02-11T11:25:59.225Z,15.27
2023-02-11T11:28:31.121Z,15.25
2023-02-11T11:31:01.886Z,15.29
2023-02-11T11:33:33.400Z,15.31
2023-02-11T11:36:09.017Z,15.39
2023-02-11T11:38:44.668Z,15.57
2023-02-11T11:41:25.935Z,15.64
2023-02-11T11:44:04.280Z,15.67
2023-02-11T11:46:36.514Z,15.65
2023-02-11T11:49:27.734Z,15.60
2023-02-11T11:52:11.318Z,15.56
2023-02-11T11:54:42.982Z,15.50
2023-02-11T11:57:17.915Z,15.38
2023-02-11T11:59:47.151Z,15.30
2023-02-11T12:03:00.912Z,15.24
2023-02-11T12:05:39.265Z,15.27
2023-02-11T12:08:24.882Z,15.35
2023-02-11T12:11:10.592Z,15.35
2023-02-11T12:13:50.288Z,15.33
2023-02-11T12:16:32.153Z,15.32
2023-02-11T12:19:48.002Z,15.31
2023-02-11T12:22:31.992Z,15.29
2023-02-11T12:25:23.606Z,15.24
2023-02-11T12:28:05.131Z,15.22
2023-02-11T12:31:07.842Z,15.16
2023-02-11T12:34:05.707Z,15.13
2023-02-11T12:37:02.941Z,15.11
2023-02-11T12:39:44.515Z,15.06
2023-02-11T12:43:03.355Z,14.95
2023-02-11T12:46:25.860Z,14.72
2023-02-11T12:49:33.176Z,14.70
2023-02-11T12:52:36.928Z,14.94
2023-02-11T12:55:17.394Z,15.20
2023-02-11T12:57:50.395Z,15.31
2023-02-11T13:00:24.822Z,15.31
2023-02-11T13:03:05.275Z,15.23
2023-02-11T13:05:42.551Z,15.15
2023-02-11T13:08:16.766Z,15.10
2023-02-11T13:10:52.366Z,15.06
2023-02-11T13:13:26.888Z,15.02
2023-02-11T13:16:00.302Z,14.96
2023-02-11T13:18:51.058Z,14.86
2023-02-11T13:21:46.651Z,14.76
2023-02-11T13:24:28.136Z,14.71
2023-02-11T13:27:16.415Z,14.66
2023-02-11T13:30:31.840Z,14.61
2023-02-11T13:33:21.783Z,14.61
2023-02-11T13:36:17.005Z,14.56
2023-02-11T13:39:03.063Z,14.52
2023-02-11T13:41:40.653Z,14.52
2023-02-11T13:44:26.017Z,14.44
2023-02-11T13:47:04.748Z,14.39
2023-02-11T13:49:40.660Z,14.39
2023-02-11T13:52:26.563Z,14.41
2023-02-11T13:54:58.201Z,14.51
2023-02-11T13:57:40.859Z,14.58
2023-02-11T14:00:52.295Z,14.70
2023-02-11T14:03:48.611Z,14.79
2023-02-11T14:07:02.522Z,14.80
2023-02-11T14:09:57.715Z,14.78
2023-02-11T14:12:37.352Z,14.74
2023-02-11T14:15:28.389Z,14.66
2023-02-11T14:17:57.218Z,14.60
2023-02-11T14:20:51.351Z,14.44
2023-02-11T14:23:28.489Z,14.36
2023-02-11T14:26:40.129Z,14.29
2023-02-11T14:29:19.977Z,14.20
2023-02-11T14:32:01.044Z,14.09
2023-02-11T14:34:54.172Z,13.95
2023-02-11T14:37:40.344Z,13.81
2023-02-11T14:40:26.879Z,13.73
2023-02-11T14:43:02.801Z,13.67
2023-02-11T14:45:32.626Z,13.60
2023-02-11T14:48:08.792Z,13.53
2023-02-11T14:50:46.580Z,13.45
2023-02-11T14:53:24.368Z,13.39
2023-02-11T14:55:55.993Z,13.35
2023-02-11T14:58:28.246Z,13.32
2023-02-11T15:01:00.993Z,13.29
2023-02-11T15:03:35.245Z,13.29
2023-02-11T15:06:09.659Z,13.28
2023-02-11T15:08:45.878Z,13.27
2023-02-11T15:11:19.565Z,13.25
2023-02-11T15:13:55.557Z,13.24
2023-02-11T15:16:29.087Z,13.20
2023-02-11T15:19:04.086Z,13.20
2023-02-11T15:21:38.257Z,13.20
2023-02-11T15:24:25.765Z,13.14
2023-02-11T15:27:04.290Z,13.12
2023-02-11T15:29:39.918Z,13.08
2023-02-11T15:32:17.131Z,13.06
2023-02-11T15:34:48.671Z,13.04
2023-02-11T15:37:23.670Z,13.02
2023-02-11T15:39:57.213Z,13.00
2023-02-11T15:42:40.988Z,12.96
2023-02-11T15:45:29.324Z,12.93
2023-02-11T15:48:09.618Z,12.90
2023-02-11T15:50:41.373Z,12.86
2023-02-11T15:53:28.251Z,12.82
2023-02-11T15:56:06.619Z,12.76
2023-02-11T15:58:44.650Z,12.71
2023-02-11T16:01:15.421Z,12.66
2023-02-11T16:03:51.594Z,12.61
2023-02-11T16:06:24.867Z,12.57
2023-02-11T16:09:04.535Z,12.54
2023-02-11T16:11:37.524Z,12.50
2023-02-11T16:14:25.205Z,12.45
2023-02-11T16:16:57.943Z,12.43
2023-02-11T16:19:30.983Z,12.40
2023-02-11T16:22:09.022Z,12.37
2023-02-11T16:24:44.534Z,12.34
2023-02-11T16:27:26.221Z,12.30
2023-02-11T16:29:56.398Z,12.27
2023-02-11T16:32:29.674Z,12.26
2023-02-11T16:35:02.549Z,12.23
2023-02-11T16:37:32.838Z,12.23
2023-02-11T16:40:02.511Z,12.19
2023-02-11T16:42:33.728Z,12.18
2023-02-11T16:45:03.844Z,12.16
2023-02-11T16:47:33.992Z,12.16
2023-02-11T16:50:10.118Z,12.14
2023-02-11T16:52:41.369Z,12.14
2023-02-11T16:55:12.141Z,12.13
2023-02-11T16:57:43.903Z,12.11
2023-02-11T17:00:17.323Z,12.07
2023-02-11T17:02:48.045Z,12.06
2023-02-11T17:05:23.637Z,12.01
2023-02-11T17:07:53.210Z,11.98
2023-02-11T17:10:25.164Z,11.90
2023-02-11T17:12:56.102Z,11.85
2023-02-11T17:15:26.585Z,11.78
2023-02-11T17:17:59.481Z,11.76
2023-02-11T17:20:34.747Z,11.71
2023-02-11T17:23:04.924Z,11.65
2023-02-11T17:25:34.691Z,11.61
2023-02-11T17:28:06.805Z,11.59
2023-02-11T17:30:36.639Z,11.56
2023-02-11T17:33:07.190Z,11.56
2023-02-11T17:35:40.971Z,11.55
2023-02-11T17:38:11.275Z,11.54
2023-02-11T17:40:41.442Z,11.52
2023-02-11T17:43:16.151Z,11.53
2023-02-11T17:45:47.304Z,11.57
2023-02-11T17:48:19.244Z,11.60
2023-02-11T17:50:49.648Z,11.62
2023-02-11T17:53:19.774Z,11.65
2023-02-11T17:55:50.336Z,11.69
2023-02-11T17:58:22.637Z,11.70
2023-02-11T18:00:52.996Z,11.74
2023-02-11T18:03:23.136Z,11.75
2023-02-11T18:05:53.612Z,11.78
2023-02-11T18:08:29.801Z,11.80
2023-02-11T18:11:02.622Z,11.83
2023-02-11T18:13:34.904Z,11.85
2023-02-11T18:16:06.707Z,11.90
2023-02-11T18:18:36.915Z,11.95
2023-02-11T18:21:09.584Z,11.98
2023-02-11T18:23:39.762Z,12.02
2023-02-11T18:26:11.052Z,12.04
2023-02-11T18:28:45.842Z,12.07
2023-02-11T18:31:18.578Z,12.10
2023-02-11T18:33:50.088Z,12.11
2023-02-11T18:36:21.248Z,12.11
2023-02-11T18:38:53.047Z,12.12
2023-02-11T18:41:23.481Z,12.12
2023-02-11T18:43:54.738Z,12.12
2023-02-11T18:46:24.744Z,12.14
2023-02-11T18:48:56.056Z,12.16
2023-02-11T18:51:28.934Z,12.16
2023-02-11T18:54:01.854Z,12.16
2023-02-11T18:56:32.101Z,12.15
2023-02-11T18:59:06.031Z,12.15
2023-02-11T19:01:36.359Z,12.16
2023-02-11T19:04:08.220Z,12.16
2023-02-11T19:06:40.032Z,12.15
2023-02-11T19:09:13.864Z,12.15
2023-02-11T19:11:50.807Z,12.13
2023-02-11T19:14:26.987Z,12.12
2023-02-11T19:16:59.818Z,12.12
2023-02-11T19:19:32.396Z,12.13
2023-02-11T19:22:03.752Z,12.13
2023-02-11T19:24:34.603Z,12.14
2023-02-11T19:27:08.283Z,12.12
2023-02-11T19:29:43.443Z,12.11
2023-02-11T19:32:14.241Z,12.12
2023-02-11T19:34:48.408Z,12.12
2023-02-11T19:37:18.702Z,12.13
2023-02-11T19:39:51.539Z,12.10
2023-02-11T19:42:21.922Z,12.08
2023-02-11T19:45:10.099Z,12.08
2023-02-11T19:47:41.744Z,12.09
2023-02-11T19:50:12.894Z,12.09
2023-02-11T19:52:43.563Z,12.08
2023-02-11T19:55:14.179Z,12.07
2023-02-11T19:57:44.991Z,12.05
2023-02-11T20:00:21.384Z,12.03
2023-02-11T20:02:50.998Z,12.06
2023-02-11T20:05:24.082Z,12.05
2023-02-11T20:07:54.572Z,12.06
2023-02-11T20:10:25.823Z,12.05
2023-02-11T20:12:57.593Z,12.05
2023-02-11T20:15:30.424Z,12.01
2023-02-11T20:18:01.111Z,12.01
2023-02-11T20:20:31.705Z,11.99
2023-02-11T20:23:02.338Z,12.00
2023-02-11T20:25:31.337Z,11.98
2023-02-11T20:28:01.894Z,12.02
2023-02-11T20:30:34.143Z,11.98
2023-02-11T20:33:05.071Z,11.98
2023-02-11T20:35:35.174Z,11.97
2023-02-11T20:38:05.756Z,11.99
2023-02-11T20:40:36.297Z,11.98
2023-02-11T20:43:06.829Z,11.99
2023-02-11T20:45:41.498Z,11.99
2023-02-11T20:48:13.424Z,11.97
2023-02-11T20:50:46.592Z,11.97
2023-02-11T20:53:20.305Z,11.95
2023-02-11T20:55:51.212Z,11.95
2023-02-11T20:58:20.949Z,11.94
2023-02-11T21:00:52.931Z,11.93
2023-02-11T21:03:23.461Z,11.93
2023-02-11T21:05:54.799Z,11.90
2023-02-11T21:08:24.715Z,11.89
2023-02-11T21:10:54.296Z,11.88
2023-02-11T21:13:27.958Z,11.86
2023-02-11T21:15:59.363Z,11.82
2023-02-11T21:18:33.461Z,11.83
2023-02-11T21:21:06.070Z,11.82
2023-02-11T21:23:40.298Z,11.81
2023-02-11T21:26:10.921Z,11.82
2023-02-11T21:28:42.873Z,11.83
2023-02-11T21:31:23.693Z,11.82
2023-02-11T21:33:55.560Z,11.82
2023-02-11T21:36:25.887Z,11.81
2023-02-11T21:38:55.214Z,11.80
2023-02-11T21:41:27.422Z,11.79
2023-02-11T21:43:57.565Z,11.75
2023-02-11T21:46:29.333Z,11.71
2023-02-11T21:49:00.571Z,11.66
2023-02-11T21:51:30.710Z,11.63
2023-02-11T21:54:02.945Z,11.57
2023-02-11T21:56:35.685Z,11.53
2023-02-11T21:59:05.415Z,11.51
2023-02-11T22:01:39.513Z,11.49
2023-02-11T22:04:08.407Z,11.51
2023-02-11T22:06:36.870Z,11.53
2023-02-11T22:09:08.806Z,11.54
2023-02-11T22:11:38.140Z,11.55
2023-02-11T22:14:08.082Z,11.60
2023-02-11T22:16:38.415Z,11.61
2023-02-11T22:19:07.596Z,11.61
2023-02-11T22:21:36.324Z,11.63
2023-02-11T22:24:05.882Z,11.63
2023-02-11T22:26:34.680Z,11.63
2023-02-11T22:29:03.264Z,11.62
2023-02-11T22:31:34.922Z,11.63
2023-02-11T22:34:06.160Z,11.62
2023-02-11T22:36:37.285Z,11.64
2023-02-11T22:39:08.766Z,11.64
2023-02-11T22:41:38.392Z,11.66
2023-02-11T22:44:06.891Z,11.65
2023-02-11T22:46:36.537Z,11.64
2023-02-11T22:49:07.218Z,11.64
2023-02-11T22:51:36.252Z,11.63
2023-02-11T22:54:07.311Z,11.62
2023-02-11T22:56:36.734Z,11.62
2023-02-11T22:59:07.882Z,11.62
2023-02-11T23:01:36.862Z,11.63
2023-02-11T23:04:09.530Z,11.63
2023-02-11T23:06:38.211Z,11.63
2023-02-11T23:09:08.231Z,11.64
2023-02-11T23:11:37.225Z,11.63
2023-02-11T23:14:05.870Z,11.65
2023-02-11T23:16:35.875Z,11.66
2023-02-11T23:19:08.575Z,11.66
2023-02-11T23:21:40.300Z,11.66
2023-02-11T23:24:14.270Z,11.67
2023-02-11T23:26:44.847Z,11.68
2023-02-11T23:29:13.993Z,11.69
2023-02-11T23:31:46.083Z,11.70
2023-02-11T23:34:20.424Z,11.70
2023-02-11T23:36:48.832Z,11.71
2023-02-11T23:39:17.979Z,11.73
2023-02-11T23:41:47.848Z,11.73
2023-02-11T23:44:16.422Z,11.75
2023-02-11T23:46:44.905Z,11.78
2023-02-11T23:49:15.620Z,11.76
2023-02-11T23:51:45.504Z,11.75
2023-02-11T23:54:15.930Z,11.74
2023-02-11T23:56:44.588Z,11.72
2023-02-11T23:59:13.197Z,11.70
